TAMU Turf Lab's Hourly Summary for Tuesday, May 15, 2018
Hour Temp
(f)
RH
(%)
Solar Rad.
(MJ/m2)
Rainfall
(in)
Wind
(mph)
5/15/2018 12:00 AM 75 59 0 0 6.19
5/15/2018 1:00 AM 73 68 0 0 4.26
5/15/2018 2:00 AM 72 75 0 0 5.8
5/15/2018 3:00 AM 70 81 0 0 5.32
5/15/2018 4:00 AM 69 85 0 0 3.54
5/15/2018 5:00 AM 70 88 0 0 5.1
5/15/2018 6:00 AM 69 90 0 0 2.88
5/15/2018 7:00 AM 69 90 0.01 0 0.88
5/15/2018 8:00 AM 69 90 0.2 0 1.39
5/15/2018 9:00 AM 70 86 0.64 0 3.63
5/15/2018 10:00 AM 73 72 1.49 0 5.29
5/15/2018 11:00 AM 76 64 1.77 0 5.12
5/15/2018 12:00 PM 78 55 2.59 0 3.41
5/15/2018 1:00 PM 83 45 3 0 3.95
5/15/2018 2:00 PM 84 42 3.05 0 3.98
5/15/2018 3:00 PM 86 39 3.01 0 4.9
5/15/2018 4:00 PM 87 38 2.58 0 5.98
5/15/2018 5:00 PM 88 34 2.39 0 6.82
5/15/2018 6:00 PM 86 35 1.29 0 5.58
5/15/2018 7:00 PM 84 39 0.25 0 3.48
5/15/2018 8:00 PM 83 41 0.06 0 1.22
5/15/2018 9:00 PM 81 45 0 0 2.4
5/15/2018 10:00 PM 80 46 0 0 0.96
5/15/2018 11:00 PM 78 49 0 0 2.2
Data Summary 77 60 22.33 0.00 3.93